Time;durP1;ratioP1;P1;durP2;ratioP2;P2;SDS_P1;SDS_P2;PMS_P1;PMS_P2;Temp;Humidity;BMP_temperature;BMP_pressure;BME280_temperature;BME280_humidity;BME280_pressure;Samples;Min_cycle;Max_cycle;Signal;HPM_P1;HPM_P2
2023/11/09 00:00:51;;;;;;;2.00;1.25;;;23.00;57.90;;;;;;10432937;28;20200;-46
2023/11/09 00:05:56;;;;;;;1.55;1.10;;;23.00;57.30;;;;;;10430770;28;20247;-47
2023/11/09 00:11:00;;;;;;;1.67;1.42;;;22.90;57.20;;;;;;10429075;28;20274;-54
2023/11/09 00:16:04;;;;;;;2.15;1.30;;;23.00;57.30;;;;;;10427463;28;20216;-46
2023/11/09 00:21:09;;;;;;;1.75;1.38;;;22.90;57.20;;;;;;10444558;28;20253;-45
2023/11/09 00:26:14;;;;;;;2.25;1.15;;;22.90;57.20;;;;;;10425159;28;20545;-48
2023/11/09 00:31:18;;;;;;;2.28;1.20;;;23.00;57.30;;;;;;10433356;28;20209;-46
2023/11/09 00:36:23;;;;;;;2.08;1.30;;;22.90;57.80;;;;;;10434958;28;20215;-51
2023/11/09 00:41:28;;;;;;;1.73;1.00;;;23.00;57.30;;;;;;10427504;28;20204;-52
2023/11/09 00:46:31;;;;;;;2.25;1.23;;;23.00;57.30;;;;;;10423007;28;20270;-49
2023/11/09 00:51:36;;;;;;;1.98;1.13;;;22.90;57.20;;;;;;10432423;28;20254;-52
2023/11/09 00:56:40;;;;;;;1.48;1.10;;;23.00;57.30;;;;;;10431469;28;20295;-56
2023/11/09 01:01:44;;;;;;;3.15;1.15;;;22.90;57.20;;;;;;10422528;28;20197;-50
2023/11/09 01:06:48;;;;;;;1.20;0.93;;;22.90;57.20;;;;;;10430977;28;20239;-43
2023/11/09 01:11:52;;;;;;;1.88;1.30;;;23.00;57.30;;;;;;10437948;28;20258;-49
2023/11/09 01:16:56;;;;;;;1.77;1.20;;;23.00;57.30;;;;;;10429414;28;20247;-44
2023/11/09 01:22:01;;;;;;;1.38;0.88;;;23.00;57.30;;;;;;10415288;28;20667;-49
2023/11/09 01:27:06;;;;;;;0.90;0.80;;;23.00;57.30;;;;;;10429446;28;20251;-53
2023/11/09 01:32:09;;;;;;;2.13;1.25;;;23.00;57.30;;;;;;10432076;28;20217;-49
2023/11/09 01:37:14;;;;;;;1.45;1.10;;;23.00;57.30;;;;;;10432802;28;20757;-49
2023/11/09 01:42:18;;;;;;;2.78;1.25;;;22.90;57.30;;;;;;10426027;28;20208;-46
2023/11/09 01:47:23;;;;;;;1.58;0.73;;;22.90;57.90;;;;;;10431085;28;20273;-44
2023/11/09 01:52:28;;;;;;;1.20;0.80;;;22.90;57.30;;;;;;10430439;28;21364;-48
2023/11/09 01:57:33;;;;;;;1.90;1.02;;;23.00;57.30;;;;;;10422521;28;20220;-46
2023/11/09 02:02:38;;;;;;;1.20;0.90;;;23.00;57.30;;;;;;10410087;28;20506;-53
2023/11/09 02:07:43;;;;;;;1.65;1.00;;;22.90;57.30;;;;;;10417977;28;20224;-51
2023/11/09 02:12:47;;;;;;;1.45;1.15;;;22.90;57.30;;;;;;10424391;28;20598;-51
2023/11/09 02:17:51;;;;;;;0.98;0.77;;;22.90;57.30;;;;;;10422431;28;20241;-45
2023/11/09 02:23:01;;;;;;;1.40;1.00;;;22.90;57.30;;;;;;10438012;28;20203;-46
2023/11/09 02:28:06;;;;;;;1.10;0.93;;;22.90;57.30;;;;;;10435140;28;20232;-46
2023/11/09 02:33:11;;;;;;;0.85;0.63;;;22.90;57.30;;;;;;10430471;28;20200;-48
2023/11/09 02:38:14;;;;;;;1.55;1.10;;;22.90;57.30;;;;;;10430433;28;20212;-50
2023/11/09 02:43:19;;;;;;;0.90;0.82;;;22.90;57.30;;;;;;10435187;28;20288;-45
2023/11/09 02:48:23;;;;;;;1.60;1.08;;;22.90;57.30;;;;;;10437596;28;20296;-48
2023/11/09 02:53:27;;;;;;;1.58;0.88;;;22.90;57.30;;;;;;10432206;28;20758;-43
2023/11/09 02:58:31;;;;;;;1.45;0.80;;;22.90;57.30;;;;;;10425588;28;20241;-46
2023/11/09 03:03:35;;;;;;;1.00;0.80;;;22.90;57.30;;;;;;10423554;28;20782;-48
2023/11/09 03:08:38;;;;;;;1.42;0.80;;;22.90;57.30;;;;;;10436474;28;20259;-44
2023/11/09 03:13:44;;;;;;;1.73;0.70;;;22.90;57.30;;;;;;10425303;28;20207;-46
2023/11/09 03:18:47;;;;;;;1.00;0.60;;;22.90;57.30;;;;;;10433531;28;20224;-47
2023/11/09 03:23:51;;;;;;;1.02;0.80;;;22.90;57.30;;;;;;10430581;28;20204;-46
2023/11/09 03:28:56;;;;;;;1.17;0.90;;;22.90;57.30;;;;;;10430312;28;20228;-48
2023/11/09 03:34:00;;;;;;;1.40;1.00;;;22.90;57.30;;;;;;10423665;28;20211;-48
2023/11/09 03:39:04;;;;;;;1.33;1.00;;;22.90;57.30;;;;;;10424646;28;20592;-45
2023/11/09 03:44:09;;;;;;;1.10;0.98;;;22.90;57.30;;;;;;10430109;28;20679;-44
2023/11/09 03:49:12;;;;;;;0.95;0.65;;;22.90;57.30;;;;;;10425783;28;20228;-51
2023/11/09 03:54:16;;;;;;;0.80;0.80;;;22.90;57.30;;;;;;10415712;28;20272;-45
2023/11/09 03:59:21;;;;;;;1.08;0.80;;;22.90;57.30;;;;;;10400353;28;20219;-48
2023/11/09 04:04:24;;;;;;;1.63;0.70;;;22.90;57.30;;;;;;10435083;28;20225;-50
2023/11/09 04:09:29;;;;;;;1.65;0.82;;;22.90;57.30;;;;;;10433205;28;20223;-49
2023/11/09 04:14:33;;;;;;;0.68;0.50;;;22.90;57.30;;;;;;10433377;28;20773;-45
2023/11/09 04:19:37;;;;;;;1.38;0.70;;;22.90;57.30;;;;;;10429091;28;20200;-51
2023/11/09 04:24:41;;;;;;;1.27;0.70;;;22.90;57.30;;;;;;10433325;28;20207;-49
2023/11/09 04:29:46;;;;;;;1.10;0.90;;;22.90;57.30;;;;;;10422806;28;20718;-51
2023/11/09 04:34:49;;;;;;;1.02;0.57;;;22.90;57.30;;;;;;10428153;28;20230;-49
2023/11/09 04:39:58;;;;;;;0.73;0.70;;;22.90;57.30;;;;;;10413670;28;20226;-47
2023/11/09 04:45:03;;;;;;;0.90;0.75;;;22.90;57.30;;;;;;10432289;28;20617;-46
2023/11/09 04:50:13;;;;;;;0.70;0.60;;;22.90;57.30;;;;;;10436924;28;20223;-46
2023/11/09 04:55:31;;;;;;;2.03;0.70;;;22.90;57.30;;;;;;10444588;28;20227;-48
2023/11/09 05:11:19;;;;;;;0.80;0.52;;;22.90;57.90;;;;;;10422746;28;20228;-47
2023/11/09 05:16:24;;;;;;;1.38;0.93;;;22.90;57.30;;;;;;10428640;28;20220;-44
2023/11/09 05:21:27;;;;;;;0.98;0.80;;;22.90;57.40;;;;;;10417135;28;20345;-44
2023/11/09 05:26:34;;;;;;;0.60;0.60;;;22.90;57.30;;;;;;10426201;28;20273;-43
2023/11/09 05:31:42;;;;;;;0.57;0.52;;;22.90;57.30;;;;;;10425333;28;20695;-50
2023/11/09 05:36:46;;;;;;;0.70;0.70;;;22.90;57.30;;;;;;10418968;28;20785;-52
2023/11/09 05:41:51;;;;;;;1.10;0.68;;;22.90;58.00;;;;;;10437437;28;20207;-44
2023/11/09 05:46:56;;;;;;;0.85;0.63;;;22.90;57.30;;;;;;10424277;28;20280;-46
2023/11/09 05:52:00;;;;;;;1.70;0.50;;;22.90;57.30;;;;;;10432845;28;20282;-48
2023/11/09 05:57:04;;;;;;;1.42;0.77;;;22.90;57.30;;;;;;10427511;28;20688;-44
2023/11/09 06:02:10;;;;;;;0.82;0.68;;;22.90;57.30;;;;;;10420903;28;20277;-44
2023/11/09 06:07:14;;;;;;;0.70;0.50;;;22.90;57.40;;;;;;10429858;28;20281;-50
2023/11/09 06:12:18;;;;;;;1.05;0.80;;;22.90;57.40;;;;;;10438608;28;20228;-44
2023/11/09 06:17:23;;;;;;;0.70;0.60;;;22.90;57.40;;;;;;10422349;28;20246;-49
2023/11/09 06:22:26;;;;;;;2.00;0.65;;;22.90;57.40;;;;;;10415928;28;20333;-48
2023/11/09 06:27:31;;;;;;;4.43;1.02;;;22.90;57.40;;;;;;10426298;28;20302;-49
2023/11/09 06:32:36;;;;;;;4.18;0.85;;;22.90;57.40;;;;;;10402081;28;20244;-46
2023/11/09 06:37:42;;;;;;;2.03;0.70;;;22.90;57.40;;;;;;10403903;28;20724;-47
2023/11/09 06:42:47;;;;;;;0.60;0.60;;;22.90;57.40;;;;;;10420714;28;20251;-52
2023/11/09 06:47:52;;;;;;;1.38;0.60;;;22.90;57.40;;;;;;10417472;28;20506;-47
2023/11/09 06:52:56;;;;;;;2.05;0.63;;;22.90;57.40;;;;;;10403359;28;20322;-46
2023/11/09 06:57:59;;;;;;;1.45;0.55;;;22.90;57.40;;;;;;10430024;28;20293;-47
2023/11/09 07:03:04;;;;;;;1.63;0.80;;;22.90;57.40;;;;;;10423462;28;20196;-51
2023/11/09 07:08:08;;;;;;;0.60;0.57;;;22.90;57.50;;;;;;10420677;28;20224;-44
2023/11/09 07:13:11;;;;;;;1.27;0.80;;;22.90;57.40;;;;;;10429441;28;20277;-45
2023/11/09 07:18:17;;;;;;;1.13;0.50;;;22.90;57.40;;;;;;10405052;28;20220;-53
2023/11/09 07:23:24;;;;;;;0.90;0.70;;;22.90;57.40;;;;;;10429484;28;20208;-44
2023/11/09 07:28:29;;;;;;;1.67;0.65;;;22.90;57.40;;;;;;10431030;28;20219;-52
2023/11/09 07:33:34;;;;;;;4.50;0.80;;;22.90;57.40;;;;;;10432309;28;20258;-45
2023/11/09 07:38:37;;;;;;;2.45;1.08;;;22.90;57.40;;;;;;10423211;28;20354;-48
2023/11/09 07:43:41;;;;;;;2.40;0.60;;;22.90;57.40;;;;;;10430376;28;20241;-43
2023/11/09 07:48:46;;;;;;;7.22;0.90;;;22.90;57.40;;;;;;10400506;28;20236;-45
2023/11/09 07:53:51;;;;;;;2.40;0.77;;;22.90;57.40;;;;;;10400489;28;20286;-45
2023/11/09 07:58:54;;;;;;;1.10;0.70;;;22.90;57.40;;;;;;10397735;28;20244;-49
2023/11/09 08:03:59;;;;;;;0.95;0.43;;;22.90;58.00;;;;;;10394229;28;20278;-47
2023/11/09 08:09:05;;;;;;;1.23;0.70;;;23.00;57.50;;;;;;10393126;28;20223;-49
2023/11/09 08:14:09;;;;;;;1.20;0.90;;;23.00;57.50;;;;;;10391526;28;20309;-49
2023/11/09 08:19:14;;;;;;;3.03;0.52;;;22.90;57.40;;;;;;10421209;28;20216;-46
2023/11/09 08:24:17;;;;;;;1.05;0.63;;;22.90;57.50;;;;;;10414889;28;20224;-46
2023/11/09 08:29:23;;;;;;;0.95;0.70;;;22.90;57.50;;;;;;10397946;28;20670;-49
2023/11/09 08:34:29;;;;;;;0.60;0.60;;;22.90;57.50;;;;;;10388898;28;20201;-47
2023/11/09 08:39:32;;;;;;;1.10;0.52;;;22.90;57.50;;;;;;10375085;28;20274;-48
2023/11/09 08:44:41;;;;;;;1.10;0.50;;;22.90;57.50;;;;;;10408257;28;20250;-66
2023/11/09 08:49:50;;;;;;;1.15;0.60;;;22.90;57.50;;;;;;10392691;28;20223;-46
2023/11/09 08:54:56;;;;;;;0.70;0.70;;;22.90;57.50;;;;;;10408254;28;20255;-43
2023/11/09 09:00:05;;;;;;;1.20;0.50;;;22.90;57.50;;;;;;10396950;28;20219;-68
2023/11/09 09:05:15;;;;;;;0.77;0.65;;;22.90;57.50;;;;;;10398160;28;20216;-67
2023/11/09 09:10:20;;;;;;;1.30;0.55;;;22.90;57.50;;;;;;10407113;28;20273;-48
2023/11/09 09:15:28;;;;;;;0.65;0.45;;;22.90;57.50;;;;;;10429393;28;20219;-51
2023/11/09 09:20:33;;;;;;;0.73;0.50;;;22.90;57.50;;;;;;10421390;28;20225;-48
2023/11/09 09:25:38;;;;;;;13.30;1.27;;;22.90;57.50;;;;;;10424744;28;20223;-59
2023/11/09 09:30:42;;;;;;;11.02;1.08;;;22.90;57.50;;;;;;10424794;28;20290;-44
2023/11/09 09:35:50;;;;;;;6.32;1.15;;;22.90;57.50;;;;;;10418799;28;20255;-46
2023/11/09 09:40:54;;;;;;;4.88;1.13;;;22.90;57.50;;;;;;10422810;28;20577;-51
2023/11/09 09:45:58;;;;;;;4.13;0.90;;;22.90;57.50;;;;;;10426011;28;20231;-46
2023/11/09 09:51:09;;;;;;;4.97;0.90;;;22.90;57.50;;;;;;10423521;28;20251;-50
2023/11/09 09:56:13;;;;;;;3.40;0.82;;;22.90;57.60;;;;;;10424722;28;20734;-46
2023/11/09 10:01:19;;;;;;;1.92;0.60;;;22.90;57.60;;;;;;10438661;28;20204;-45
2023/11/09 10:06:25;;;;;;;3.72;0.80;;;22.90;57.60;;;;;;10421904;28;20220;-47
2023/11/09 10:11:32;;;;;;;5.53;0.90;;;22.90;57.50;;;;;;10427200;28;20245;-46
2023/11/09 10:16:35;;;;;;;1.83;0.70;;;22.90;57.50;;;;;;10336606;28;20748;-49
2023/11/09 10:21:43;;;;;;;1.55;0.70;;;22.90;57.60;;;;;;10422926;28;20199;-48
2023/11/09 10:26:47;;;;;;;0.82;0.63;;;22.90;57.50;;;;;;10417374;28;20228;-46
2023/11/09 10:31:53;;;;;;;3.67;0.80;;;22.90;58.20;;;;;;10422956;28;20294;-50
2023/11/09 10:36:58;;;;;;;1.23;0.70;;;22.90;57.50;;;;;;10423916;28;20224;-45
2023/11/09 10:42:04;;;;;;;0.70;0.68;;;22.90;57.60;;;;;;10427607;28;20630;-52
2023/11/09 10:47:08;;;;;;;2.13;0.90;;;22.90;57.60;;;;;;10435123;28;20232;-50
2023/11/09 10:52:16;;;;;;;1.42;0.70;;;22.90;57.50;;;;;;10434595;28;20285;-50
2023/11/09 10:57:21;;;;;;;1.88;0.70;;;22.90;57.50;;;;;;10435643;28;20282;-47
2023/11/09 11:02:27;;;;;;;1.17;0.70;;;22.90;57.50;;;;;;10431175;28;20199;-47
2023/11/09 11:07:35;;;;;;;3.15;0.80;;;22.90;57.50;;;;;;10431747;28;20746;-48
2023/11/09 11:12:45;;;;;;;1.48;0.73;;;22.90;57.60;;;;;;10436033;28;20316;-46
2023/11/09 11:18:01;;;;;;;1.52;0.70;;;22.90;57.60;;;;;;10430683;28;20246;-47
2023/11/09 11:23:47;;;;;;;1.75;0.60;;;22.90;57.60;;;;;;10428533;28;20200;-49
2023/11/09 11:28:53;;;;;;;1.65;0.90;;;22.90;57.60;;;;;;10413265;28;20227;-46
2023/11/09 11:33:57;;;;;;;2.05;0.80;;;22.90;57.60;;;;;;10429300;28;20854;-47
2023/11/09 11:39:20;;;;;;;1.45;0.70;;;22.90;57.50;;;;;;10422881;28;20350;-47
2023/11/09 11:44:37;;;;;;;2.25;0.68;;;22.90;58.20;;;;;;10430962;28;20203;-49
2023/11/09 11:49:50;;;;;;;2.20;0.80;;;22.90;57.60;;;;;;10419890;28;20203;-50
2023/11/09 11:54:54;;;;;;;2.03;0.73;;;22.90;57.50;;;;;;10427391;28;20269;-46
2023/11/09 12:00:08;;;;;;;1.10;0.80;;;22.90;57.50;;;;;;10429937;28;20205;-47
2023/11/09 12:05:15;;;;;;;1.35;0.80;;;22.90;57.50;;;;;;10428452;28;20286;-49
2023/11/09 12:10:22;;;;;;;3.17;0.80;;;22.90;57.60;;;;;;10430303;28;20204;-49
2023/11/09 12:15:29;;;;;;;1.77;1.02;;;22.90;58.20;;;;;;10432180;28;20219;-50
2023/11/09 12:20:33;;;;;;;2.25;0.95;;;22.90;57.60;;;;;;10418642;28;20761;-52
2023/11/09 12:25:49;;;;;;;1.92;1.05;;;22.90;57.50;;;;;;10414716;28;20389;-49
2023/11/09 12:30:55;;;;;;;2.10;1.00;;;22.90;57.50;;;;;;10426203;28;20625;-50
2023/11/09 12:36:02;;;;;;;2.58;0.90;;;22.90;57.50;;;;;;10419987;28;20215;-50
2023/11/09 12:41:06;;;;;;;1.80;0.77;;;22.90;57.50;;;;;;10396232;28;20223;-58
2023/11/09 12:46:14;;;;;;;2.83;1.00;;;22.90;57.50;;;;;;10396406;28;20300;-53
2023/11/09 12:51:21;;;;;;;2.00;1.00;;;22.90;57.50;;;;;;10399945;28;20248;-48
2023/11/09 12:56:25;;;;;;;2.50;0.80;;;22.90;57.50;;;;;;10399528;28;20709;-53
2023/11/09 13:01:39;;;;;;;2.92;0.80;;;22.90;57.50;;;;;;10402706;28;20281;-50
2023/11/09 13:06:43;;;;;;;7.68;1.23;;;22.90;57.50;;;;;;10408953;28;20232;-45
2023/11/09 13:11:46;;;;;;;1.85;1.20;;;22.90;57.50;;;;;;10400704;28;20255;-45
2023/11/09 13:16:52;;;;;;;5.50;1.05;;;22.90;57.50;;;;;;10392184;28;20267;-56
2023/11/09 13:21:56;;;;;;;2.25;0.77;;;22.90;57.50;;;;;;10410046;28;20287;-50
2023/11/09 13:27:00;;;;;;;3.28;1.05;;;22.90;57.50;;;;;;10388383;28;20244;-52
2023/11/09 13:32:05;;;;;;;2.30;1.00;;;23.00;57.60;;;;;;10417113;28;20245;-46
2023/11/09 13:37:09;;;;;;;1.63;1.05;;;22.90;57.50;;;;;;10395827;28;20304;-60
2023/11/09 13:42:20;;;;;;;4.10;1.23;;;22.90;58.10;;;;;;10398276;28;20223;-51
2023/11/09 13:47:27;;;;;;;2.42;1.25;;;22.90;57.50;;;;;;10418607;28;20251;-51
2023/11/09 13:52:38;;;;;;;3.65;1.02;;;22.90;57.50;;;;;;10429547;28;20212;-48
2023/11/09 13:57:47;;;;;;;1.08;0.90;;;22.90;57.50;;;;;;10416914;28;20252;-50
2023/11/09 14:02:52;;;;;;;2.45;1.15;;;22.90;57.50;;;;;;10400800;28;20367;-48
2023/11/09 14:07:55;;;;;;;1.40;0.98;;;22.90;57.50;;;;;;10396720;28;20286;-48
2023/11/09 14:13:09;;;;;;;2.63;1.25;;;22.90;57.40;;;;;;10385929;28;20220;-47
2023/11/09 14:18:39;;;;;;;2.20;1.02;;;22.90;58.10;;;;;;10375174;28;20275;-52
2023/11/09 14:23:43;;;;;;;1.73;1.02;;;22.90;57.40;;;;;;10408116;28;20252;-49
2023/11/09 14:28:46;;;;;;;2.60;1.27;;;22.90;57.40;;;;;;10426041;28;20530;-54
2023/11/09 14:33:51;;;;;;;2.63;1.13;;;22.90;57.50;;;;;;10427492;28;20248;-45
2023/11/09 14:38:55;;;;;;;1.55;0.90;;;22.90;57.50;;;;;;10428391;28;20227;-47
2023/11/09 14:43:58;;;;;;;2.88;1.27;;;22.90;57.50;;;;;;10403058;28;20207;-49
2023/11/09 14:49:09;;;;;;;3.17;1.38;;;22.90;57.50;;;;;;10403132;28;20290;-48
2023/11/09 14:54:13;;;;;;;4.68;1.48;;;22.90;57.50;;;;;;10408675;28;20224;-50
2023/11/09 14:59:16;;;;;;;3.90;1.27;;;22.90;57.50;;;;;;10392305;28;20274;-47
2023/11/09 15:04:25;;;;;;;4.55;1.10;;;22.90;57.50;;;;;;10403572;28;20200;-47
2023/11/09 15:09:32;;;;;;;2.58;1.05;;;22.90;57.50;;;;;;10406778;28;20220;-53
2023/11/09 15:14:35;;;;;;;2.25;1.00;;;22.90;57.50;;;;;;10391365;28;20600;-53
2023/11/09 15:19:42;;;;;;;3.25;1.05;;;22.90;57.50;;;;;;10376792;28;20212;-54
2023/11/09 15:24:45;;;;;;;3.10;1.20;;;22.90;57.50;;;;;;10395508;28;20208;-54
2023/11/09 15:29:49;;;;;;;2.83;1.30;;;22.90;57.50;;;;;;10362873;28;20204;-46
2023/11/09 15:34:54;;;;;;;2.95;1.20;;;22.90;57.50;;;;;;10417767;28;20298;-45
2023/11/09 15:39:57;;;;;;;2.45;1.33;;;22.90;57.50;;;;;;10399039;28;20290;-45
2023/11/09 15:45:23;;;;;;;2.53;0.80;;;22.90;57.50;;;;;;10393041;28;20252;-42
2023/11/09 15:50:28;;;;;;;2.13;1.10;;;22.90;57.50;;;;;;10414678;28;20204;-49
2023/11/09 15:55:33;;;;;;;3.33;1.20;;;22.90;57.50;;;;;;10416688;28;20296;-45
2023/11/09 16:00:39;;;;;;;3.25;1.45;;;22.90;57.50;;;;;;10399648;28;20258;-53
2023/11/09 16:05:45;;;;;;;2.42;1.00;;;22.90;57.50;;;;;;10403359;28;20248;-53
2023/11/09 16:10:49;;;;;;;3.80;1.10;;;22.90;57.50;;;;;;10393470;28;20232;-53
2023/11/09 16:15:54;;;;;;;3.30;1.10;;;22.90;57.50;;;;;;10401979;28;20331;-42
2023/11/09 16:20:59;;;;;;;2.30;1.08;;;22.90;57.50;;;;;;10399500;28;20254;-47
2023/11/09 16:26:04;;;;;;;2.22;1.25;;;22.90;57.50;;;;;;10407065;28;20289;-44
2023/11/09 16:31:07;;;;;;;2.78;1.20;;;22.90;57.50;;;;;;10398091;28;20205;-45
2023/11/09 16:36:13;;;;;;;2.60;1.30;;;22.90;57.50;;;;;;10393581;28;20695;-45
2023/11/09 16:41:17;;;;;;;4.80;1.40;;;22.90;57.50;;;;;;10397476;28;20288;-43
2023/11/09 16:46:23;;;;;;;2.03;1.00;;;22.90;57.50;;;;;;10404801;28;20240;-43
2023/11/09 16:51:28;;;;;;;2.50;1.30;;;22.90;57.50;;;;;;10401554;28;20274;-44
2023/11/09 16:56:32;;;;;;;3.45;1.20;;;22.90;57.50;;;;;;10419938;28;20247;-46
2023/11/09 17:01:36;;;;;;;2.58;0.93;;;22.90;57.50;;;;;;10421368;28;20195;-43
2023/11/09 17:06:41;;;;;;;3.17;1.10;;;22.90;57.50;;;;;;10417575;28;20724;-41
2023/11/09 17:11:44;;;;;;;2.15;1.42;;;22.90;57.50;;;;;;10412121;28;20629;-46
2023/11/09 17:16:48;;;;;;;3.80;1.63;;;22.90;57.50;;;;;;10403619;28;20317;-41
2023/11/09 17:21:53;;;;;;;4.00;1.27;;;22.90;57.50;;;;;;10427024;28;20211;-42
2023/11/09 17:26:57;;;;;;;2.53;1.20;;;22.90;57.50;;;;;;10400684;28;20614;-45
2023/11/09 17:32:00;;;;;;;2.90;1.33;;;22.90;57.50;;;;;;10392402;28;20200;-43
2023/11/09 17:37:05;;;;;;;3.50;1.20;;;22.90;57.50;;;;;;10387969;28;20293;-44
2023/11/09 17:42:10;;;;;;;3.78;1.50;;;22.90;57.40;;;;;;10432013;28;20655;-45
2023/11/09 17:47:14;;;;;;;2.50;1.17;;;22.90;57.40;;;;;;10387283;23;20255;-45
2023/11/09 17:52:19;;;;;;;2.28;1.10;;;22.90;57.40;;;;;;10416042;28;20221;-44
2023/11/09 17:57:24;;;;;;;2.45;1.00;;;22.90;57.40;;;;;;10432879;28;20646;-45
2023/11/09 18:02:28;;;;;;;2.83;1.30;;;22.90;57.50;;;;;;10405112;28;20239;-44
2023/11/09 18:07:33;;;;;;;2.13;1.10;;;22.90;57.40;;;;;;10415046;28;20212;-47
2023/11/09 18:12:36;;;;;;;2.75;1.10;;;22.90;57.40;;;;;;10398627;28;20258;-45
2023/11/09 18:17:40;;;;;;;1.80;1.20;;;22.90;57.40;;;;;;10409085;28;20365;-42
2023/11/09 18:22:45;;;;;;;3.55;1.33;;;22.90;57.40;;;;;;10408246;28;20238;-43
2023/11/09 18:27:50;;;;;;;2.58;1.17;;;22.90;57.40;;;;;;10412010;28;20288;-45
2023/11/09 18:32:54;;;;;;;2.05;1.08;;;22.90;57.40;;;;;;10413036;28;20620;-46
2023/11/09 18:37:58;;;;;;;2.17;1.10;;;22.90;57.40;;;;;;10405801;28;20309;-47
2023/11/09 18:43:02;;;;;;;2.05;1.00;;;22.90;57.40;;;;;;10404639;28;20208;-45
2023/11/09 18:48:06;;;;;;;2.58;1.20;;;22.80;57.30;;;;;;10405143;28;20414;-46
2023/11/09 18:53:11;;;;;;;2.05;1.13;;;22.90;57.40;;;;;;10415335;28;20612;-43
2023/11/09 18:58:14;;;;;;;3.15;1.35;;;22.90;57.40;;;;;;10412857;28;20691;-44
2023/11/09 19:03:22;;;;;;;2.47;1.08;;;22.90;57.40;;;;;;10382760;28;20694;-45
2023/11/09 19:08:30;;;;;;;1.67;0.98;;;22.80;57.30;;;;;;10286642;28;20293;-46
2023/11/09 19:13:33;;;;;;;1.90;1.13;;;22.90;57.40;;;;;;10287165;28;20201;-47
2023/11/09 19:18:37;;;;;;;3.50;1.55;;;22.90;57.30;;;;;;10285733;28;20356;-44
2023/11/09 19:23:42;;;;;;;3.28;1.50;;;22.80;57.30;;;;;;10305982;28;20196;-47
2023/11/09 19:28:45;;;;;;;3.20;1.00;;;22.90;57.40;;;;;;10403324;28;20274;-46
2023/11/09 19:33:49;;;;;;;2.00;1.23;;;22.80;57.30;;;;;;10411007;28;20756;-50
2023/11/09 19:38:54;;;;;;;1.95;1.10;;;22.90;57.40;;;;;;10409120;28;20290;-43
2023/11/09 19:43:57;;;;;;;3.85;1.33;;;22.90;57.40;;;;;;10413159;28;20254;-45
2023/11/09 19:49:01;;;;;;;2.45;0.93;;;22.80;57.30;;;;;;10411697;28;20228;-43
2023/11/09 19:54:07;;;;;;;5.68;1.40;;;22.90;57.50;;;;;;10407248;28;20289;-46
2023/11/09 19:59:11;;;;;;;8.05;1.58;;;22.80;57.50;;;;;;10404967;28;20228;-44
2023/11/09 20:04:16;;;;;;;9.55;1.85;;;22.80;57.50;;;;;;10406459;28;20316;-47
2023/11/09 20:09:23;;;;;;;9.27;1.55;;;22.90;57.60;;;;;;10408834;28;20220;-49
2023/11/09 20:14:27;;;;;;;10.20;1.70;;;22.90;57.60;;;;;;10408072;28;20761;-46
2023/11/09 20:19:30;;;;;;;7.07;1.20;;;22.90;58.20;;;;;;10411571;28;20441;-45
2023/11/09 20:24:35;;;;;;;5.03;1.10;;;22.90;57.50;;;;;;10410173;28;20223;-44
2023/11/09 20:29:42;;;;;;;3.75;0.90;;;22.90;57.60;;;;;;10404208;28;20252;-48
2023/11/09 20:34:45;;;;;;;3.50;1.10;;;22.90;57.60;;;;;;10406404;28;20294;-45
2023/11/09 20:39:50;;;;;;;4.28;0.93;;;22.90;57.60;;;;;;10402146;28;20282;-47
2023/11/09 20:44:54;;;;;;;4.75;1.23;;;22.90;57.60;;;;;;10391302;28;20294;-47
2023/11/09 20:49:58;;;;;;;2.47;1.17;;;22.90;58.20;;;;;;10380810;28;20209;-47
2023/11/09 20:55:03;;;;;;;6.80;1.30;;;22.90;57.50;;;;;;10398655;28;20252;-46
2023/11/09 21:00:08;;;;;;;8.45;1.20;;;22.90;57.60;;;;;;10400365;28;20736;-45
2023/11/09 21:05:12;;;;;;;4.82;1.30;;;22.90;57.60;;;;;;10399219;28;20667;-43
2023/11/09 21:10:18;;;;;;;4.13;1.17;;;22.90;57.60;;;;;;10384989;28;20714;-46
2023/11/09 21:15:21;;;;;;;2.53;0.80;;;22.90;57.50;;;;;;10391999;28;20252;-43
2023/11/09 21:20:26;;;;;;;1.75;1.10;;;22.90;57.60;;;;;;10396251;28;20236;-45
2023/11/09 21:25:31;;;;;;;1.98;1.00;;;22.90;57.50;;;;;;10392012;28;20663;-47
2023/11/09 21:30:35;;;;;;;1.77;0.70;;;22.90;57.50;;;;;;10389210;28;20200;-46
2023/11/09 21:35:38;;;;;;;1.25;0.70;;;22.90;57.50;;;;;;10391951;28;20289;-43
2023/11/09 21:40:43;;;;;;;2.63;0.75;;;22.90;57.50;;;;;;10395378;28;20231;-46
2023/11/09 21:45:47;;;;;;;1.83;1.00;;;22.90;57.50;;;;;;10393373;28;20251;-52
2023/11/09 21:50:50;;;;;;;7.88;1.55;;;22.80;57.50;;;;;;10396189;28;20228;-43
2023/11/09 21:55:55;;;;;;;10.48;1.55;;;22.90;57.60;;;;;;10397613;28;20252;-45
2023/11/09 22:00:59;;;;;;;7.47;1.10;;;22.90;57.60;;;;;;10408060;28;20274;-45
2023/11/09 22:06:02;;;;;;;8.68;1.10;;;22.80;57.50;;;;;;10405477;28;20224;-47
2023/11/09 22:11:08;;;;;;;5.13;1.00;;;22.90;57.50;;;;;;10403619;28;20208;-46
2023/11/09 22:16:12;;;;;;;2.55;1.02;;;22.80;57.50;;;;;;10406450;28;20248;-49
2023/11/09 22:21:16;;;;;;;4.13;0.90;;;22.80;57.40;;;;;;10406022;28;20232;-47
2023/11/09 22:26:22;;;;;;;2.80;0.80;;;22.90;57.50;;;;;;10406083;28;20278;-45
2023/11/09 22:31:25;;;;;;;2.15;0.80;;;22.80;57.50;;;;;;10392803;28;20196;-46
2023/11/09 22:36:29;;;;;;;1.17;0.70;;;22.90;58.10;;;;;;10392311;28;20224;-47
2023/11/09 22:41:34;;;;;;;2.47;0.50;;;22.80;57.40;;;;;;10402295;28;20269;-48
2023/11/09 22:46:41;;;;;;;2.85;1.02;;;22.80;57.40;;;;;;10401650;28;20223;-42
2023/11/09 22:51:44;;;;;;;1.48;0.60;;;22.80;57.40;;;;;;10394059;28;20668;-45
2023/11/09 22:56:50;;;;;;;1.15;0.60;;;22.80;57.40;;;;;;10403926;28;20601;-46
2023/11/09 23:01:53;;;;;;;2.00;0.70;;;22.80;57.30;;;;;;10413958;28;20209;-44
2023/11/09 23:06:57;;;;;;;1.67;0.85;;;22.80;58.00;;;;;;10407917;28;20247;-49
2023/11/09 23:12:03;;;;;;;2.05;0.80;;;22.80;57.30;;;;;;10397655;28;20200;-47
2023/11/09 23:17:06;;;;;;;2.08;0.50;;;22.80;57.30;;;;;;10411230;28;20252;-48
2023/11/09 23:22:10;;;;;;;0.80;0.60;;;22.80;57.30;;;;;;10404195;28;20227;-48
2023/11/09 23:27:15;;;;;;;2.28;0.70;;;22.80;57.30;;;;;;10408034;28;20220;-45
2023/11/09 23:32:20;;;;;;;0.70;0.60;;;22.80;57.30;;;;;;10411800;28;20582;-45
2023/11/09 23:37:23;;;;;;;1.38;0.80;;;22.80;57.20;;;;;;10411902;28;20223;-46
2023/11/09 23:42:28;;;;;;;1.45;0.75;;;22.80;57.20;;;;;;10409377;28;20262;-43
2023/11/09 23:47:32;;;;;;;1.55;0.60;;;22.80;57.20;;;;;;10410342;28;20228;-46
2023/11/09 23:52:36;;;;;;;1.10;0.40;;;22.80;57.20;;;;;;10411334;28;20208;-45
2023/11/09 23:57:41;;;;;;;1.90;0.63;;;22.80;57.20;;;;;;10411023;28;20286;-49
